sensor_id;sensor_type;location;lat;lon;timestamp;temperature;humidity
7290;DHT22;63176;52.678;13.250;2022-12-31T00:01:52;9.00;99.90
7290;DHT22;63176;52.678;13.250;2022-12-31T00:04:18;9.00;99.90
7290;DHT22;63176;52.678;13.250;2022-12-31T00:06:44;9.00;99.90
7290;DHT22;63176;52.678;13.250;2022-12-31T00:09:10;9.10;99.90
7290;DHT22;63176;52.678;13.250;2022-12-31T00:11:36;9.10;99.90
7290;DHT22;63176;52.678;13.250;2022-12-31T00:14:02;9.20;99.90
7290;DHT22;63176;52.678;13.250;2022-12-31T00:16:30;9.20;99.90
7290;DHT22;63176;52.678;13.250;2022-12-31T00:18:58;9.20;99.90
7290;DHT22;63176;52.678;13.250;2022-12-31T00:21:25;9.20;99.90
7290;DHT22;63176;52.678;13.250;2022-12-31T00:23:51;9.30;99.90
7290;DHT22;63176;52.678;13.250;2022-12-31T00:26:19;9.30;99.90
7290;DHT22;63176;52.678;13.250;2022-12-31T00:28:46;9.40;99.90
7290;DHT22;63176;52.678;13.250;2022-12-31T00:31:20;9.40;99.90
7290;DHT22;63176;52.678;13.250;2022-12-31T00:33:46;9.40;99.90
7290;DHT22;63176;52.678;13.250;2022-12-31T00:36:17;9.40;99.90
7290;DHT22;63176;52.678;13.250;2022-12-31T00:38:44;9.40;99.90
7290;DHT22;63176;52.678;13.250;2022-12-31T00:41:11;9.40;99.90
7290;DHT22;63176;52.678;13.250;2022-12-31T00:43:37;9.40;99.90
7290;DHT22;63176;52.678;13.250;2022-12-31T00:46:04;9.50;99.90
7290;DHT22;63176;52.678;13.250;2022-12-31T00:48:30;9.50;99.90
7290;DHT22;63176;52.678;13.250;2022-12-31T00:50:56;9.50;99.90
7290;DHT22;63176;52.678;13.250;2022-12-31T00:53:22;9.40;99.90
7290;DHT22;63176;52.678;13.250;2022-12-31T00:55:48;9.50;99.90
7290;DHT22;63176;52.678;13.250;2022-12-31T00:58:14;9.40;99.90
7290;DHT22;63176;52.678;13.250;2022-12-31T01:00:40;9.50;99.90
7290;DHT22;63176;52.678;13.250;2022-12-31T01:03:06;9.40;99.90
7290;DHT22;63176;52.678;13.250;2022-12-31T01:05:33;9.40;99.90
7290;DHT22;63176;52.678;13.250;2022-12-31T01:07:59;9.40;99.90
7290;DHT22;63176;52.678;13.250;2022-12-31T01:10:25;9.40;99.90
7290;DHT22;63176;52.678;13.250;2022-12-31T01:13:09;9.30;99.90
7290;DHT22;63176;52.678;13.250;2022-12-31T01:15:36;9.30;99.90
7290;DHT22;63176;52.678;13.250;2022-12-31T01:18:04;9.30;99.90
7290;DHT22;63176;52.678;13.250;2022-12-31T01:20:30;9.30;99.90
7290;DHT22;63176;52.678;13.250;2022-12-31T01:22:59;9.30;99.90
7290;DHT22;63176;52.678;13.250;2022-12-31T01:25:25;9.30;99.90
7290;DHT22;63176;52.678;13.250;2022-12-31T01:27:50;9.30;99.90
7290;DHT22;63176;52.678;13.250;2022-12-31T01:30:16;9.30;99.90
7290;DHT22;63176;52.678;13.250;2022-12-31T01:32:41;9.30;99.90
7290;DHT22;63176;52.678;13.250;2022-12-31T01:35:07;9.30;99.90
7290;DHT22;63176;52.678;13.250;2022-12-31T01:37:33;9.30;99.90
7290;DHT22;63176;52.678;13.250;2022-12-31T01:39:59;9.30;99.90
7290;DHT22;63176;52.678;13.250;2022-12-31T01:42:24;9.30;99.90
7290;DHT22;63176;52.678;13.250;2022-12-31T01:44:53;9.40;99.90
7290;DHT22;63176;52.678;13.250;2022-12-31T01:47:35;9.40;99.90
7290;DHT22;63176;52.678;13.250;2022-12-31T01:50:19;9.50;99.90
7290;DHT22;63176;52.678;13.250;2022-12-31T01:52:51;9.50;99.90
7290;DHT22;63176;52.678;13.250;2022-12-31T01:55:55;9.50;99.90
7290;DHT22;63176;52.678;13.250;2022-12-31T01:58:19;9.50;99.90
7290;DHT22;63176;52.678;13.250;2022-12-31T02:00:45;9.50;99.90
7290;DHT22;63176;52.678;13.250;2022-12-31T02:03:12;9.50;99.90
7290;DHT22;63176;52.678;13.250;2022-12-31T02:08:30;9.60;99.90
7290;DHT22;63176;52.678;13.250;2022-12-31T02:10:56;9.60;99.90
7290;DHT22;63176;52.678;13.250;2022-12-31T02:13:21;9.50;99.90
7290;DHT22;63176;52.678;13.250;2022-12-31T02:16:09;9.60;99.90
7290;DHT22;63176;52.678;13.250;2022-12-31T02:22:21;9.60;99.90
7290;DHT22;63176;52.678;13.250;2022-12-31T02:27:18;9.70;99.90
7290;DHT22;63176;52.678;13.250;2022-12-31T02:30:16;9.70;99.90
7290;DHT22;63176;52.678;13.250;2022-12-31T02:32:53;9.70;99.90
7290;DHT22;63176;52.678;13.250;2022-12-31T02:37:47;9.70;99.90
7290;DHT22;63176;52.678;13.250;2022-12-31T02:40:17;9.80;99.90
7290;DHT22;63176;52.678;13.250;2022-12-31T02:42:44;9.80;99.90
7290;DHT22;63176;52.678;13.250;2022-12-31T02:45:11;9.90;99.90
7290;DHT22;63176;52.678;13.250;2022-12-31T02:47:53;9.90;99.90
7290;DHT22;63176;52.678;13.250;2022-12-31T02:50:43;9.90;99.90
7290;DHT22;63176;52.678;13.250;2022-12-31T02:53:47;10.00;99.90
7290;DHT22;63176;52.678;13.250;2022-12-31T02:59:06;10.10;99.90
7290;DHT22;63176;52.678;13.250;2022-12-31T03:01:58;10.20;99.90
7290;DHT22;63176;52.678;13.250;2022-12-31T03:04:53;10.20;99.90
7290;DHT22;63176;52.678;13.250;2022-12-31T03:07:27;10.20;99.90
7290;DHT22;63176;52.678;13.250;2022-12-31T03:09:53;10.20;99.90
7290;DHT22;63176;52.678;13.250;2022-12-31T03:12:21;10.20;99.90
7290;DHT22;63176;52.678;13.250;2022-12-31T03:15:08;10.20;99.90
7290;DHT22;63176;52.678;13.250;2022-12-31T03:18:01;10.20;99.90
7290;DHT22;63176;52.678;13.250;2022-12-31T03:20:45;10.20;99.90
7290;DHT22;63176;52.678;13.250;2022-12-31T03:23:34;10.30;99.90
7290;DHT22;63176;52.678;13.250;2022-12-31T03:26:01;10.30;99.90
7290;DHT22;63176;52.678;13.250;2022-12-31T03:28:29;10.30;99.90
7290;DHT22;63176;52.678;13.250;2022-12-31T03:31:00;10.30;99.90
7290;DHT22;63176;52.678;13.250;2022-12-31T03:33:30;10.40;99.90
7290;DHT22;63176;52.678;13.250;2022-12-31T03:35:56;10.40;99.90
7290;DHT22;63176;52.678;13.250;2022-12-31T03:38:21;10.40;99.90
7290;DHT22;63176;52.678;13.250;2022-12-31T03:40:50;10.50;99.90
7290;DHT22;63176;52.678;13.250;2022-12-31T03:43:17;10.50;99.90
7290;DHT22;63176;52.678;13.250;2022-12-31T03:45:46;10.60;99.90
7290;DHT22;63176;52.678;13.250;2022-12-31T03:48:12;10.50;99.90
7290;DHT22;63176;52.678;13.250;2022-12-31T03:50:38;10.50;99.90
7290;DHT22;63176;52.678;13.250;2022-12-31T03:53:04;10.50;99.90
7290;DHT22;63176;52.678;13.250;2022-12-31T03:55:29;10.60;99.90
7290;DHT22;63176;52.678;13.250;2022-12-31T03:57:55;10.70;99.90
7290;DHT22;63176;52.678;13.250;2022-12-31T04:00:21;10.60;99.90
7290;DHT22;63176;52.678;13.250;2022-12-31T04:02:47;10.60;99.90
7290;DHT22;63176;52.678;13.250;2022-12-31T04:05:14;10.60;99.90
7290;DHT22;63176;52.678;13.250;2022-12-31T04:07:40;10.60;99.90
7290;DHT22;63176;52.678;13.250;2022-12-31T04:10:08;10.50;99.90
7290;DHT22;63176;52.678;13.250;2022-12-31T04:12:34;10.50;99.90
7290;DHT22;63176;52.678;13.250;2022-12-31T04:15:00;10.50;99.90
7290;DHT22;63176;52.678;13.250;2022-12-31T04:17:25;10.50;99.90
7290;DHT22;63176;52.678;13.250;2022-12-31T04:19:51;10.50;99.90
7290;DHT22;63176;52.678;13.250;2022-12-31T04:22:17;10.50;99.90
7290;DHT22;63176;52.678;13.250;2022-12-31T04:24:43;10.50;99.90
7290;DHT22;63176;52.678;13.250;2022-12-31T04:27:10;10.50;99.90
7290;DHT22;63176;52.678;13.250;2022-12-31T04:29:36;10.50;99.90
7290;DHT22;63176;52.678;13.250;2022-12-31T04:32:03;10.50;99.90
7290;DHT22;63176;52.678;13.250;2022-12-31T04:34:29;10.50;99.90
7290;DHT22;63176;52.678;13.250;2022-12-31T04:36:55;10.50;99.90
7290;DHT22;63176;52.678;13.250;2022-12-31T04:39:21;10.50;99.90
7290;DHT22;63176;52.678;13.250;2022-12-31T04:41:47;10.40;99.90
7290;DHT22;63176;52.678;13.250;2022-12-31T04:44:12;10.40;99.90
7290;DHT22;63176;52.678;13.250;2022-12-31T04:46:38;10.40;99.90
7290;DHT22;63176;52.678;13.250;2022-12-31T04:49:04;10.40;99.90
7290;DHT22;63176;52.678;13.250;2022-12-31T04:51:30;10.40;99.90
7290;DHT22;63176;52.678;13.250;2022-12-31T04:53:56;10.40;99.90
7290;DHT22;63176;52.678;13.250;2022-12-31T04:56:22;10.40;99.90
7290;DHT22;63176;52.678;13.250;2022-12-31T04:58:48;10.40;99.90
7290;DHT22;63176;52.678;13.250;2022-12-31T05:01:14;10.50;99.90
7290;DHT22;63176;52.678;13.250;2022-12-31T05:03:40;10.50;99.90
7290;DHT22;63176;52.678;13.250;2022-12-31T05:06:08;10.60;99.90
7290;DHT22;63176;52.678;13.250;2022-12-31T05:08:35;10.60;99.90
7290;DHT22;63176;52.678;13.250;2022-12-31T05:11:00;10.60;99.90
7290;DHT22;63176;52.678;13.250;2022-12-31T05:13:26;10.70;99.90
7290;DHT22;63176;52.678;13.250;2022-12-31T05:15:53;10.70;99.90
7290;DHT22;63176;52.678;13.250;2022-12-31T05:18:19;10.70;99.90
7290;DHT22;63176;52.678;13.250;2022-12-31T05:20:45;10.80;99.90
7290;DHT22;63176;52.678;13.250;2022-12-31T05:23:11;10.80;99.90
7290;DHT22;63176;52.678;13.250;2022-12-31T05:25:37;10.80;99.90
7290;DHT22;63176;52.678;13.250;2022-12-31T05:28:02;10.80;99.90
7290;DHT22;63176;52.678;13.250;2022-12-31T05:30:28;10.80;99.90
7290;DHT22;63176;52.678;13.250;2022-12-31T05:32:54;10.80;99.90
7290;DHT22;63176;52.678;13.250;2022-12-31T05:35:19;10.80;99.90
7290;DHT22;63176;52.678;13.250;2022-12-31T05:37:45;10.80;99.90
7290;DHT22;63176;52.678;13.250;2022-12-31T05:40:11;10.80;99.90
7290;DHT22;63176;52.678;13.250;2022-12-31T05:42:37;10.70;99.90
7290;DHT22;63176;52.678;13.250;2022-12-31T05:45:04;10.70;99.90
7290;DHT22;63176;52.678;13.250;2022-12-31T05:47:30;10.70;99.90
7290;DHT22;63176;52.678;13.250;2022-12-31T05:49:55;10.70;99.90
7290;DHT22;63176;52.678;13.250;2022-12-31T05:52:21;10.70;99.90
7290;DHT22;63176;52.678;13.250;2022-12-31T05:54:47;10.70;99.90
7290;DHT22;63176;52.678;13.250;2022-12-31T05:57:13;10.70;99.90
7290;DHT22;63176;52.678;13.250;2022-12-31T05:59:38;10.70;99.90
7290;DHT22;63176;52.678;13.250;2022-12-31T06:02:04;10.70;99.90
7290;DHT22;63176;52.678;13.250;2022-12-31T06:04:29;10.60;99.90
7290;DHT22;63176;52.678;13.250;2022-12-31T06:06:55;10.60;99.90
7290;DHT22;63176;52.678;13.250;2022-12-31T06:09:21;10.60;99.90
7290;DHT22;63176;52.678;13.250;2022-12-31T06:11:46;10.50;99.90
7290;DHT22;63176;52.678;13.250;2022-12-31T06:14:13;10.50;99.90
7290;DHT22;63176;52.678;13.250;2022-12-31T06:16:39;10.40;99.90
7290;DHT22;63176;52.678;13.250;2022-12-31T06:19:05;10.40;99.90
7290;DHT22;63176;52.678;13.250;2022-12-31T06:21:31;10.40;99.90
7290;DHT22;63176;52.678;13.250;2022-12-31T06:23:57;10.40;99.90
7290;DHT22;63176;52.678;13.250;2022-12-31T06:26:24;10.40;99.90
7290;DHT22;63176;52.678;13.250;2022-12-31T06:28:50;10.40;99.90
7290;DHT22;63176;52.678;13.250;2022-12-31T06:31:16;10.30;99.90
7290;DHT22;63176;52.678;13.250;2022-12-31T06:33:41;10.40;99.90
7290;DHT22;63176;52.678;13.250;2022-12-31T06:36:10;10.50;99.90
7290;DHT22;63176;52.678;13.250;2022-12-31T06:38:38;10.50;99.90
7290;DHT22;63176;52.678;13.250;2022-12-31T06:41:07;10.60;99.90
7290;DHT22;63176;52.678;13.250;2022-12-31T06:43:33;10.50;99.90
7290;DHT22;63176;52.678;13.250;2022-12-31T06:46:00;10.60;99.90
7290;DHT22;63176;52.678;13.250;2022-12-31T06:48:26;10.70;99.90
7290;DHT22;63176;52.678;13.250;2022-12-31T06:50:52;10.70;99.90
7290;DHT22;63176;52.678;13.250;2022-12-31T06:53:17;10.70;99.90
7290;DHT22;63176;52.678;13.250;2022-12-31T06:55:43;10.70;99.90
7290;DHT22;63176;52.678;13.250;2022-12-31T06:58:12;10.70;99.90
7290;DHT22;63176;52.678;13.250;2022-12-31T07:01:02;10.70;99.90
7290;DHT22;63176;52.678;13.250;2022-12-31T07:09:39;10.80;99.90
7290;DHT22;63176;52.678;13.250;2022-12-31T07:14:48;10.90;99.90
7290;DHT22;63176;52.678;13.250;2022-12-31T07:20:12;11.00;99.90
7290;DHT22;63176;52.678;13.250;2022-12-31T07:22:38;11.10;99.90
7290;DHT22;63176;52.678;13.250;2022-12-31T07:25:05;11.10;99.90
7290;DHT22;63176;52.678;13.250;2022-12-31T07:27:49;11.10;99.90
7290;DHT22;63176;52.678;13.250;2022-12-31T07:30:20;11.20;99.90
7290;DHT22;63176;52.678;13.250;2022-12-31T07:41:39;11.50;99.90
7290;DHT22;63176;52.678;13.250;2022-12-31T07:46:57;11.60;99.90
7290;DHT22;63176;52.678;13.250;2022-12-31T07:49:25;11.60;99.90
7290;DHT22;63176;52.678;13.250;2022-12-31T07:51:51;11.70;99.90
7290;DHT22;63176;52.678;13.250;2022-12-31T07:54:16;11.70;99.90
7290;DHT22;63176;52.678;13.250;2022-12-31T07:56:43;11.70;99.90
7290;DHT22;63176;52.678;13.250;2022-12-31T08:01:47;11.70;99.90
7290;DHT22;63176;52.678;13.250;2022-12-31T08:07:18;11.80;99.90
7290;DHT22;63176;52.678;13.250;2022-12-31T08:13:07;11.90;99.90
7290;DHT22;63176;52.678;13.250;2022-12-31T08:15:33;12.00;99.90
7290;DHT22;63176;52.678;13.250;2022-12-31T08:18:01;12.00;99.90
7290;DHT22;63176;52.678;13.250;2022-12-31T08:20:28;12.00;99.90
7290;DHT22;63176;52.678;13.250;2022-12-31T08:26:10;12.10;99.90
7290;DHT22;63176;52.678;13.250;2022-12-31T08:31:21;12.20;99.90
7290;DHT22;63176;52.678;13.250;2022-12-31T08:34:07;12.20;99.90
7290;DHT22;63176;52.678;13.250;2022-12-31T08:41:50;12.30;99.90
7290;DHT22;63176;52.678;13.250;2022-12-31T08:50:17;12.80;99.90
7290;DHT22;63176;52.678;13.250;2022-12-31T08:52:44;12.80;99.90
7290;DHT22;63176;52.678;13.250;2022-12-31T08:55:14;12.80;99.90
7290;DHT22;63176;52.678;13.250;2022-12-31T08:58:02;12.80;99.90
7290;DHT22;63176;52.678;13.250;2022-12-31T09:00:32;12.80;99.90
7290;DHT22;63176;52.678;13.250;2022-12-31T09:06:04;12.80;99.90
7290;DHT22;63176;52.678;13.250;2022-12-31T09:08:48;12.90;99.90
7290;DHT22;63176;52.678;13.250;2022-12-31T09:11:24;13.00;99.90
7290;DHT22;63176;52.678;13.250;2022-12-31T09:16:50;13.10;99.90
7290;DHT22;63176;52.678;13.250;2022-12-31T09:19:17;13.10;99.90
7290;DHT22;63176;52.678;13.250;2022-12-31T09:21:44;13.00;99.90
7290;DHT22;63176;52.678;13.250;2022-12-31T09:24:14;13.10;99.90
7290;DHT22;63176;52.678;13.250;2022-12-31T09:27:00;13.10;99.90
7290;DHT22;63176;52.678;13.250;2022-12-31T09:29:56;13.20;99.90
7290;DHT22;63176;52.678;13.250;2022-12-31T09:35:36;13.10;99.90
7290;DHT22;63176;52.678;13.250;2022-12-31T09:38:36;13.00;99.90
7290;DHT22;63176;52.678;13.250;2022-12-31T09:47:13;12.80;99.90
7290;DHT22;63176;52.678;13.250;2022-12-31T09:58:11;12.70;99.90
7290;DHT22;63176;52.678;13.250;2022-12-31T10:01:25;12.70;99.90
7290;DHT22;63176;52.678;13.250;2022-12-31T10:03:51;12.70;99.90
7290;DHT22;63176;52.678;13.250;2022-12-31T10:06:27;12.70;99.90
7290;DHT22;63176;52.678;13.250;2022-12-31T10:11:50;12.70;99.90
7290;DHT22;63176;52.678;13.250;2022-12-31T10:23:03;12.60;99.90
7290;DHT22;63176;52.678;13.250;2022-12-31T10:39:36;12.60;99.90
7290;DHT22;63176;52.678;13.250;2022-12-31T11:21:01;12.80;99.90
7290;DHT22;63176;52.678;13.250;2022-12-31T11:23:56;12.80;99.90
7290;DHT22;63176;52.678;13.250;2022-12-31T11:34:56;12.80;99.90
7290;DHT22;63176;52.678;13.250;2022-12-31T11:37:39;12.80;99.90
7290;DHT22;63176;52.678;13.250;2022-12-31T11:43:22;12.90;99.90
7290;DHT22;63176;52.678;13.250;2022-12-31T11:49:13;13.10;99.90
7290;DHT22;63176;52.678;13.250;2022-12-31T11:57:47;13.20;99.90
7290;DHT22;63176;52.678;13.250;2022-12-31T12:00:20;13.20;99.90
7290;DHT22;63176;52.678;13.250;2022-12-31T12:05:19;13.20;99.90
7290;DHT22;63176;52.678;13.250;2022-12-31T12:07:47;13.30;99.90
7290;DHT22;63176;52.678;13.250;2022-12-31T12:10:31;13.20;99.90
7290;DHT22;63176;52.678;13.250;2022-12-31T12:12:58;13.20;99.90
7290;DHT22;63176;52.678;13.250;2022-12-31T12:15:31;13.30;99.90
7290;DHT22;63176;52.678;13.250;2022-12-31T12:17:59;13.30;99.90
7290;DHT22;63176;52.678;13.250;2022-12-31T12:20:35;13.20;99.90
7290;DHT22;63176;52.678;13.250;2022-12-31T12:23:13;13.20;99.90
7290;DHT22;63176;52.678;13.250;2022-12-31T12:25:42;13.20;99.90
7290;DHT22;63176;52.678;13.250;2022-12-31T12:30:43;13.20;99.90
7290;DHT22;63176;52.678;13.250;2022-12-31T12:33:18;13.20;99.90
7290;DHT22;63176;52.678;13.250;2022-12-31T12:35:45;13.20;99.90
7290;DHT22;63176;52.678;13.250;2022-12-31T12:38:21;13.30;99.90
7290;DHT22;63176;52.678;13.250;2022-12-31T12:40:58;13.30;99.90
7290;DHT22;63176;52.678;13.250;2022-12-31T12:43:28;13.30;99.90
7290;DHT22;63176;52.678;13.250;2022-12-31T12:46:11;13.40;99.90
7290;DHT22;63176;52.678;13.250;2022-12-31T12:48:45;13.40;99.90
7290;DHT22;63176;52.678;13.250;2022-12-31T12:51:39;13.50;99.90
7290;DHT22;63176;52.678;13.250;2022-12-31T12:57:03;13.80;99.90
7290;DHT22;63176;52.678;13.250;2022-12-31T13:11:19;14.50;99.90
7290;DHT22;63176;52.678;13.250;2022-12-31T13:19:18;14.80;99.90
7290;DHT22;63176;52.678;13.250;2022-12-31T13:21:57;14.90;99.90
7290;DHT22;63176;52.678;13.250;2022-12-31T13:30:00;15.20;99.90
7290;DHT22;63176;52.678;13.250;2022-12-31T13:38:18;15.30;99.90
7290;DHT22;63176;52.678;13.250;2022-12-31T13:43:45;15.40;99.90
7290;DHT22;63176;52.678;13.250;2022-12-31T13:46:15;15.50;99.90
7290;DHT22;63176;52.678;13.250;2022-12-31T13:49:01;15.70;99.90
7290;DHT22;63176;52.678;13.250;2022-12-31T13:51:39;15.80;99.90
7290;DHT22;63176;52.678;13.250;2022-12-31T13:56:39;15.80;99.90
7290;DHT22;63176;52.678;13.250;2022-12-31T14:04:49;16.00;99.90
7290;DHT22;63176;52.678;13.250;2022-12-31T14:07:21;16.00;99.90
7290;DHT22;63176;52.678;13.250;2022-12-31T14:09:48;15.80;99.90
7290;DHT22;63176;52.678;13.250;2022-12-31T14:20:36;14.70;99.90
7290;DHT22;63176;52.678;13.250;2022-12-31T14:26:09;14.30;99.90
7290;DHT22;63176;52.678;13.250;2022-12-31T14:28:57;14.10;99.90
7290;DHT22;63176;52.678;13.250;2022-12-31T14:47:52;14.00;99.90
7290;DHT22;63176;52.678;13.250;2022-12-31T14:50:24;14.00;99.90
7290;DHT22;63176;52.678;13.250;2022-12-31T14:55:30;14.00;99.90
7290;DHT22;63176;52.678;13.250;2022-12-31T14:57:58;14.00;99.90
7290;DHT22;63176;52.678;13.250;2022-12-31T15:00:34;14.10;99.90
7290;DHT22;63176;52.678;13.250;2022-12-31T15:05:53;14.10;99.90
7290;DHT22;63176;52.678;13.250;2022-12-31T15:11:48;14.00;99.90
7290;DHT22;63176;52.678;13.250;2022-12-31T15:20:05;13.90;99.90
7290;DHT22;63176;52.678;13.250;2022-12-31T15:22:48;13.90;99.90
7290;DHT22;63176;52.678;13.250;2022-12-31T15:27:50;13.90;99.90
7290;DHT22;63176;52.678;13.250;2022-12-31T15:30:48;13.90;99.90
7290;DHT22;63176;52.678;13.250;2022-12-31T15:33:25;13.90;99.90
7290;DHT22;63176;52.678;13.250;2022-12-31T15:35:54;14.00;99.90
7290;DHT22;63176;52.678;13.250;2022-12-31T15:38:33;14.00;99.90
7290;DHT22;63176;52.678;13.250;2022-12-31T15:41:00;14.00;99.90
7290;DHT22;63176;52.678;13.250;2022-12-31T15:46:19;14.20;99.90
7290;DHT22;63176;52.678;13.250;2022-12-31T15:48:48;14.30;99.90
7290;DHT22;63176;52.678;13.250;2022-12-31T15:51:28;14.40;99.90
7290;DHT22;63176;52.678;13.250;2022-12-31T15:53:57;14.40;99.90
7290;DHT22;63176;52.678;13.250;2022-12-31T15:56:41;14.50;99.90
7290;DHT22;63176;52.678;13.250;2022-12-31T15:59:14;14.60;99.90
7290;DHT22;63176;52.678;13.250;2022-12-31T16:01:41;14.60;99.90
7290;DHT22;63176;52.678;13.250;2022-12-31T16:04:15;14.60;99.90
7290;DHT22;63176;52.678;13.250;2022-12-31T16:06:42;14.60;99.90
7290;DHT22;63176;52.678;13.250;2022-12-31T16:09:24;14.60;99.90
7290;DHT22;63176;52.678;13.250;2022-12-31T16:11:51;14.60;99.90
7290;DHT22;63176;52.678;13.250;2022-12-31T16:14:22;14.60;99.90
7290;DHT22;63176;52.678;13.250;2022-12-31T16:16:56;14.60;99.90
7290;DHT22;63176;52.678;13.250;2022-12-31T16:19:35;14.70;99.90
7290;DHT22;63176;52.678;13.250;2022-12-31T16:22:22;14.80;99.90
7290;DHT22;63176;52.678;13.250;2022-12-31T16:24:57;14.80;99.90
7290;DHT22;63176;52.678;13.250;2022-12-31T16:27:24;14.80;99.90
7290;DHT22;63176;52.678;13.250;2022-12-31T16:30:18;14.90;99.90
7290;DHT22;63176;52.678;13.250;2022-12-31T16:32:47;15.00;99.90
7290;DHT22;63176;52.678;13.250;2022-12-31T16:35:33;15.20;99.90
7290;DHT22;63176;52.678;13.250;2022-12-31T16:38:09;15.30;99.90
7290;DHT22;63176;52.678;13.250;2022-12-31T16:40:35;15.30;99.90
7290;DHT22;63176;52.678;13.250;2022-12-31T16:43:01;15.30;99.90
7290;DHT22;63176;52.678;13.250;2022-12-31T16:45:33;15.40;99.90
7290;DHT22;63176;52.678;13.250;2022-12-31T16:48:08;15.40;99.90
7290;DHT22;63176;52.678;13.250;2022-12-31T16:50:37;15.40;99.90
7290;DHT22;63176;52.678;13.250;2022-12-31T16:53:06;15.40;99.90
7290;DHT22;63176;52.678;13.250;2022-12-31T16:55:33;15.40;99.90
7290;DHT22;63176;52.678;13.250;2022-12-31T16:58:28;15.50;99.90
7290;DHT22;63176;52.678;13.250;2022-12-31T17:00:51;15.60;99.90
7290;DHT22;63176;52.678;13.250;2022-12-31T17:03:22;15.60;99.90
7290;DHT22;63176;52.678;13.250;2022-12-31T17:13:52;15.60;99.90
7290;DHT22;63176;52.678;13.250;2022-12-31T17:16:18;15.70;99.90
7290;DHT22;63176;52.678;13.250;2022-12-31T17:18:44;15.70;99.90
7290;DHT22;63176;52.678;13.250;2022-12-31T17:21:12;15.70;99.90
7290;DHT22;63176;52.678;13.250;2022-12-31T17:23:39;15.70;99.90
7290;DHT22;63176;52.678;13.250;2022-12-31T17:26:14;15.80;99.90
7290;DHT22;63176;52.678;13.250;2022-12-31T17:28:48;15.80;99.90
7290;DHT22;63176;52.678;13.250;2022-12-31T17:33:53;15.80;99.90
7290;DHT22;63176;52.678;13.250;2022-12-31T17:36:28;15.90;99.90
7290;DHT22;63176;52.678;13.250;2022-12-31T17:38:53;15.90;99.90
7290;DHT22;63176;52.678;13.250;2022-12-31T17:41:25;16.00;99.90
7290;DHT22;63176;52.678;13.250;2022-12-31T17:43:55;16.00;99.90
7290;DHT22;63176;52.678;13.250;2022-12-31T17:46:22;16.00;99.90
7290;DHT22;63176;52.678;13.250;2022-12-31T17:49:00;16.00;99.90
7290;DHT22;63176;52.678;13.250;2022-12-31T17:51:26;15.90;99.90
7290;DHT22;63176;52.678;13.250;2022-12-31T17:53:52;15.80;99.90
7290;DHT22;63176;52.678;13.250;2022-12-31T17:56:18;15.80;99.90
7290;DHT22;63176;52.678;13.250;2022-12-31T17:58:47;15.80;99.90
7290;DHT22;63176;52.678;13.250;2022-12-31T18:01:16;15.70;99.90
7290;DHT22;63176;52.678;13.250;2022-12-31T18:03:43;15.80;99.90
7290;DHT22;63176;52.678;13.250;2022-12-31T18:06:10;15.80;99.90
7290;DHT22;63176;52.678;13.250;2022-12-31T18:08:36;15.80;99.90
7290;DHT22;63176;52.678;13.250;2022-12-31T18:11:02;15.80;99.90
7290;DHT22;63176;52.678;13.250;2022-12-31T18:13:27;15.80;99.90
7290;DHT22;63176;52.678;13.250;2022-12-31T18:15:54;15.70;99.90
7290;DHT22;63176;52.678;13.250;2022-12-31T18:18:31;15.70;99.90
7290;DHT22;63176;52.678;13.250;2022-12-31T18:21:02;15.70;99.90
7290;DHT22;63176;52.678;13.250;2022-12-31T18:23:43;15.80;99.90
7290;DHT22;63176;52.678;13.250;2022-12-31T18:26:18;15.70;99.90
7290;DHT22;63176;52.678;13.250;2022-12-31T18:28:44;15.70;99.90
7290;DHT22;63176;52.678;13.250;2022-12-31T18:31:13;15.60;99.90
7290;DHT22;63176;52.678;13.250;2022-12-31T18:33:40;15.50;99.90
7290;DHT22;63176;52.678;13.250;2022-12-31T18:36:11;15.50;99.90
7290;DHT22;63176;52.678;13.250;2022-12-31T18:38:37;15.40;99.90
7290;DHT22;63176;52.678;13.250;2022-12-31T18:41:04;15.40;99.90
7290;DHT22;63176;52.678;13.250;2022-12-31T18:43:30;15.50;99.90
7290;DHT22;63176;52.678;13.250;2022-12-31T18:45:56;15.60;99.90
7290;DHT22;63176;52.678;13.250;2022-12-31T18:48:21;15.60;99.90
7290;DHT22;63176;52.678;13.250;2022-12-31T18:50:47;15.60;99.90
7290;DHT22;63176;52.678;13.250;2022-12-31T18:53:15;15.50;99.90
7290;DHT22;63176;52.678;13.250;2022-12-31T18:58:12;15.30;99.90
7290;DHT22;63176;52.678;13.250;2022-12-31T19:00:38;15.20;99.90
7290;DHT22;63176;52.678;13.250;2022-12-31T19:03:03;15.30;99.90
7290;DHT22;63176;52.678;13.250;2022-12-31T19:05:32;15.30;99.90
7290;DHT22;63176;52.678;13.250;2022-12-31T19:07:58;15.30;99.90
7290;DHT22;63176;52.678;13.250;2022-12-31T19:10:25;15.30;99.90
7290;DHT22;63176;52.678;13.250;2022-12-31T19:12:51;15.30;99.90
7290;DHT22;63176;52.678;13.250;2022-12-31T19:15:21;15.30;99.90
7290;DHT22;63176;52.678;13.250;2022-12-31T19:17:48;15.30;99.90
7290;DHT22;63176;52.678;13.250;2022-12-31T19:20:13;15.30;99.90
7290;DHT22;63176;52.678;13.250;2022-12-31T19:22:39;15.30;99.90
7290;DHT22;63176;52.678;13.250;2022-12-31T19:25:26;15.40;99.90
7290;DHT22;63176;52.678;13.250;2022-12-31T19:27:52;15.30;99.90
7290;DHT22;63176;52.678;13.250;2022-12-31T19:30:24;15.40;99.90
7290;DHT22;63176;52.678;13.250;2022-12-31T19:32:50;15.40;99.90
7290;DHT22;63176;52.678;13.250;2022-12-31T19:35:16;15.40;99.90
7290;DHT22;63176;52.678;13.250;2022-12-31T19:37:44;15.30;99.90
7290;DHT22;63176;52.678;13.250;2022-12-31T19:40:13;15.30;99.90
7290;DHT22;63176;52.678;13.250;2022-12-31T19:42:39;15.30;99.90
7290;DHT22;63176;52.678;13.250;2022-12-31T19:45:06;15.20;99.90
7290;DHT22;63176;52.678;13.250;2022-12-31T19:47:31;15.30;99.90
7290;DHT22;63176;52.678;13.250;2022-12-31T19:49:57;15.30;99.90
7290;DHT22;63176;52.678;13.250;2022-12-31T19:52:23;15.30;99.90
7290;DHT22;63176;52.678;13.250;2022-12-31T19:54:48;15.30;99.90
7290;DHT22;63176;52.678;13.250;2022-12-31T19:57:14;15.40;99.90
7290;DHT22;63176;52.678;13.250;2022-12-31T19:59:39;15.50;99.90
7290;DHT22;63176;52.678;13.250;2022-12-31T20:02:06;15.60;99.90
7290;DHT22;63176;52.678;13.250;2022-12-31T20:04:31;15.50;99.90
7290;DHT22;63176;52.678;13.250;2022-12-31T20:06:57;15.50;99.90
7290;DHT22;63176;52.678;13.250;2022-12-31T20:09:22;15.40;99.90
7290;DHT22;63176;52.678;13.250;2022-12-31T20:11:48;15.40;99.90
7290;DHT22;63176;52.678;13.250;2022-12-31T20:14:13;15.40;99.90
7290;DHT22;63176;52.678;13.250;2022-12-31T20:16:39;15.40;99.90
7290;DHT22;63176;52.678;13.250;2022-12-31T20:19:05;15.40;99.90
7290;DHT22;63176;52.678;13.250;2022-12-31T20:21:30;15.40;99.90
7290;DHT22;63176;52.678;13.250;2022-12-31T20:23:56;15.40;99.90
7290;DHT22;63176;52.678;13.250;2022-12-31T20:26:23;15.40;99.90
7290;DHT22;63176;52.678;13.250;2022-12-31T20:28:49;15.40;99.90
7290;DHT22;63176;52.678;13.250;2022-12-31T20:31:18;15.40;99.90
7290;DHT22;63176;52.678;13.250;2022-12-31T20:33:44;15.50;99.90